Time;durP1;ratioP1;P1;durP2;ratioP2;P2;SDS_P1;SDS_P2;PMS_P1;PMS_P2;Temp;Humidity;BMP_temperature;BMP_pressure;BME280_temperature;BME280_humidity;BME280_pressure;Samples;Min_cycle;Max_cycle;Signal;HPM_P1;HPM_P2
2023/04/19 00:02:02;;;;;;;14.40;13.00;;;;;;;10.74;100.00;100867.16;5033328;28;20196;-76
2023/04/19 00:04:28;;;;;;;14.20;12.93;;;;;;;10.73;100.00;100870.66;5039585;28;20189;-76
2023/04/19 00:06:54;;;;;;;15.17;13.67;;;;;;;10.70;100.00;100862.88;5030279;28;20288;-75
2023/04/19 00:09:19;;;;;;;14.43;13.13;;;;;;;10.69;100.00;100868.91;5030195;28;20281;-76
2023/04/19 00:11:44;;;;;;;15.20;13.70;;;;;;;10.68;100.00;100865.44;5035376;28;20206;-76
2023/04/19 00:14:21;;;;;;;15.20;13.80;;;;;;;10.67;100.00;100861.13;5069971;27;1227078;-77
2023/04/19 00:16:46;;;;;;;15.20;13.70;;;;;;;10.63;100.00;100864.59;5091716;28;20216;-77
2023/04/19 00:19:12;;;;;;;15.13;13.73;;;;;;;10.62;100.00;100862.88;5082949;28;20196;-74
2023/04/19 00:21:37;;;;;;;16.23;14.63;;;;;;;10.58;100.00;100853.38;5088349;28;20177;-75
2023/04/19 00:24:02;;;;;;;14.30;12.93;;;;;;;10.54;100.00;100853.38;5090997;28;20184;-76
2023/04/19 00:26:28;;;;;;;15.20;13.70;;;;;;;10.51;100.00;100860.28;5100085;28;20204;-74
2023/04/19 00:28:53;;;;;;;15.23;13.93;;;;;;;10.49;100.00;100858.56;5091976;28;20172;-75
2023/04/19 00:31:18;;;;;;;14.33;13.03;;;;;;;10.50;100.00;100862.88;5066885;28;20171;-78
2023/04/19 00:33:44;;;;;;;14.97;13.57;;;;;;;10.50;100.00;100863.72;5069598;28;20212;-75
2023/04/19 00:36:09;;;;;;;15.33;13.93;;;;;;;10.48;100.00;100859.41;5092083;28;20200;-76
2023/04/19 00:38:35;;;;;;;15.83;14.43;;;;;;;10.46;100.00;100855.97;5086522;28;20574;-74
2023/04/19 00:41:00;;;;;;;16.13;14.63;;;;;;;10.44;100.00;100855.94;5088567;28;20180;-75
2023/04/19 00:43:25;;;;;;;15.70;14.20;;;;;;;10.46;100.00;100853.38;5089322;28;20181;-74
2023/04/19 00:45:51;;;;;;;15.60;13.93;;;;;;;10.45;100.00;100852.50;5088303;28;20232;-74
2023/04/19 00:48:16;;;;;;;16.07;14.30;;;;;;;10.44;100.00;100855.94;5110210;28;20253;-74
2023/04/19 00:50:43;;;;;;;14.70;13.30;;;;;;;10.42;100.00;100856.81;5111256;28;20189;-76
2023/04/19 00:53:09;;;;;;;14.87;13.47;;;;;;;10.41;100.00;100849.91;5101199;28;20929;-75
2023/04/19 00:55:35;;;;;;;14.93;13.53;;;;;;;10.39;100.00;100847.34;5072497;28;20197;-75
2023/04/19 00:58:01;;;;;;;15.50;14.00;;;;;;;10.36;100.00;100855.06;5092597;28;20230;-76
2023/04/19 01:00:26;;;;;;;15.07;13.67;;;;;;;10.32;100.00;100846.44;5090917;28;20178;-74
2023/04/19 01:02:52;;;;;;;15.33;13.87;;;;;;;10.32;100.00;100848.13;5087642;28;20185;-75
2023/04/19 01:05:18;;;;;;;15.23;13.73;;;;;;;10.32;100.00;100846.44;5065974;28;20306;-75
2023/04/19 01:07:43;;;;;;;14.93;13.43;;;;;;;10.32;100.00;100843.84;5088418;28;20196;-75
2023/04/19 01:10:09;;;;;;;14.53;13.17;;;;;;;10.31;100.00;100838.66;5073067;28;20601;-75
2023/04/19 01:12:34;;;;;;;14.50;13.03;;;;;;;10.28;100.00;100844.69;5062187;28;22051;-75
2023/04/19 01:15:00;;;;;;;14.63;13.13;;;;;;;10.33;100.00;100844.69;5087978;28;20187;-76
2023/04/19 01:17:27;;;;;;;14.47;13.17;;;;;;;10.29;100.00;100838.66;5068331;28;20197;-74
2023/04/19 01:19:59;;;;;;;15.33;13.83;;;;;;;10.28;100.00;100838.66;5085114;28;20207;-75
2023/04/19 01:22:25;;;;;;;14.93;13.57;;;;;;;10.26;100.00;100840.38;5087859;28;20732;-75
2023/04/19 01:24:50;;;;;;;15.33;13.83;;;;;;;10.23;100.00;100838.63;5074390;28;20177;-75
2023/04/19 01:27:16;;;;;;;14.57;13.27;;;;;;;10.22;100.00;100835.22;5077658;28;20323;-75
2023/04/19 01:29:42;;;;;;;15.60;14.13;;;;;;;10.20;100.00;100842.09;5074414;28;20179;-75
2023/04/19 01:32:07;;;;;;;14.87;13.47;;;;;;;10.16;100.00;100831.75;5077679;28;20185;-76
2023/04/19 01:34:32;;;;;;;14.53;13.23;;;;;;;10.12;100.00;100825.72;5057636;28;20182;-75
2023/04/19 01:36:58;;;;;;;14.00;12.70;;;;;;;10.08;100.00;100829.16;5062185;28;20210;-73
2023/04/19 01:39:25;;;;;;;14.47;13.07;;;;;;;10.09;100.00;100827.41;5079424;28;20212;-75
2023/04/19 01:41:50;;;;;;;14.87;13.30;;;;;;;10.06;100.00;100826.53;5082795;28;20709;-76
2023/04/19 01:44:15;;;;;;;14.83;13.47;;;;;;;10.04;100.00;100825.69;5070449;28;20181;-75
2023/04/19 01:46:41;;;;;;;14.80;13.50;;;;;;;10.03;100.00;100816.22;5084779;28;20648;-75
2023/04/19 01:49:07;;;;;;;15.93;14.43;;;;;;;10.02;100.00;100814.50;5064560;28;20258;-74
2023/04/19 01:51:32;;;;;;;14.70;13.30;;;;;;;10.01;100.00;100823.09;5081200;28;20189;-74
2023/04/19 01:53:58;;;;;;;15.30;13.63;;;;;;;10.00;100.00;100820.50;5072194;28;20201;-74
2023/04/19 01:56:23;;;;;;;15.07;13.57;;;;;;;10.00;100.00;100818.78;5075691;28;20204;-74
2023/04/19 01:58:49;;;;;;;14.67;13.27;;;;;;;9.99;100.00;100814.47;5069961;28;20188;-74
2023/04/19 02:01:15;;;;;;;14.83;13.47;;;;;;;9.97;100.00;100811.03;5055324;28;20798;-75
2023/04/19 02:03:40;;;;;;;14.63;13.33;;;;;;;9.97;100.00;100807.59;5073060;28;20198;-76
2023/04/19 02:06:11;;;;;;;15.93;14.53;;;;;;;9.93;100.00;100817.03;5074513;28;20315;-76
2023/04/19 02:08:36;;;;;;;15.80;14.23;;;;;;;9.93;100.00;100816.19;5051776;28;20641;-75
2023/04/19 02:11:15;;;;;;;15.23;13.93;;;;;;;9.89;100.00;100805.00;5071027;28;20190;-75
2023/04/19 02:13:40;;;;;;;15.00;13.60;;;;;;;9.85;100.00;100801.50;5076848;28;20694;-76
2023/04/19 02:16:06;;;;;;;14.63;13.23;;;;;;;9.84;100.00;100797.19;5059479;28;20193;-75
2023/04/19 02:18:34;;;;;;;15.87;14.47;;;;;;;9.86;100.00;100800.66;5071352;28;20927;-76
2023/04/19 02:21:00;;;;;;;15.63;14.07;;;;;;;9.82;100.00;100796.34;5075918;28;21023;-75
2023/04/19 02:23:26;;;;;;;14.73;13.33;;;;;;;9.80;100.00;100792.91;5055852;28;20195;-77
2023/04/19 02:25:51;;;;;;;15.43;14.07;;;;;;;9.80;100.00;100789.44;5067439;28;20205;-76
2023/04/19 02:28:16;;;;;;;14.97;13.57;;;;;;;9.77;100.00;100793.72;5054829;28;20242;-76
2023/04/19 02:30:42;;;;;;;14.87;13.47;;;;;;;9.74;100.00;100782.53;5072941;28;20184;-74
2023/04/19 02:33:07;;;;;;;15.17;13.77;;;;;;;9.74;100.00;100786.00;5069644;28;20266;-74
2023/04/19 02:35:33;;;;;;;15.10;13.70;;;;;;;9.73;100.00;100801.47;5073632;28;20215;-77
2023/04/19 02:38:00;;;;;;;15.67;14.07;;;;;;;9.69;100.00;100798.03;5072518;28;20228;-79
2023/04/19 02:40:25;;;;;;;16.20;14.50;;;;;;;9.67;100.00;100784.25;5073603;28;20224;-74
2023/04/19 02:42:51;;;;;;;16.33;14.73;;;;;;;9.67;100.00;100785.97;5052401;28;20268;-75
2023/04/19 02:45:17;;;;;;;16.43;14.93;;;;;;;9.63;100.00;100779.91;5071692;28;20919;-77
2023/04/19 02:47:42;;;;;;;17.13;15.40;;;;;;;9.61;100.00;100790.25;5050721;28;20177;-75
2023/04/19 02:50:08;;;;;;;15.57;14.17;;;;;;;9.60;100.00;100793.69;5072110;28;21898;-76
2023/04/19 02:52:33;;;;;;;16.80;15.20;;;;;;;9.62;100.00;100801.44;5070290;28;20217;-76
2023/04/19 02:54:59;;;;;;;15.97;14.57;;;;;;;9.59;100.00;100784.22;5068235;28;20197;-74
2023/04/19 02:57:24;;;;;;;16.63;14.93;;;;;;;9.61;100.00;100782.50;5073093;28;20919;-75
2023/04/19 02:59:49;;;;;;;15.70;14.20;;;;;;;9.59;100.00;100779.06;5066807;28;20189;-73
2023/04/19 03:02:15;;;;;;;16.63;15.10;;;;;;;9.60;100.00;100777.34;5047015;28;20197;-76
2023/04/19 03:04:42;;;;;;;16.97;15.47;;;;;;;9.58;100.00;100776.47;5052722;28;20189;-75
2023/04/19 03:07:08;;;;;;;17.73;16.00;;;;;;;9.56;100.00;100775.59;5069675;28;20861;-74
2023/04/19 03:09:34;;;;;;;17.77;15.87;;;;;;;9.54;100.00;100770.41;5073933;28;21064;-75
2023/04/19 03:12:00;;;;;;;18.80;16.97;;;;;;;9.55;100.00;100769.56;5055342;28;20617;-75
2023/04/19 03:14:25;;;;;;;18.83;17.03;;;;;;;9.52;100.00;100768.69;5067164;28;20653;-77
2023/04/19 03:16:50;;;;;;;17.63;15.93;;;;;;;9.49;100.00;100768.66;5070811;28;20268;-74
2023/04/19 03:19:16;;;;;;;17.73;16.00;;;;;;;9.49;100.00;100777.31;5069215;28;20190;-75
2023/04/19 03:21:41;;;;;;;18.20;16.47;;;;;;;9.46;100.00;100765.22;5070914;28;20277;-75
2023/04/19 03:24:07;;;;;;;18.77;17.00;;;;;;;9.44;100.00;100774.72;5067508;28;20927;-76
2023/04/19 03:26:32;;;;;;;18.23;16.53;;;;;;;9.43;100.00;100765.22;5073003;28;20215;-75
2023/04/19 03:28:57;;;;;;;17.40;15.80;;;;;;;9.44;100.00;100773.84;5068376;28;20187;-74
2023/04/19 03:31:23;;;;;;;16.70;15.10;;;;;;;9.42;100.00;100770.38;5048659;28;20727;-74
2023/04/19 03:33:48;;;;;;;16.23;14.73;;;;;;;9.44;100.00;100766.97;5052543;28;20223;-76
2023/04/19 03:36:13;;;;;;;16.93;15.23;;;;;;;9.41;100.00;100782.44;5079947;28;20213;-75
2023/04/19 03:38:39;;;;;;;16.90;15.40;;;;;;;9.42;100.00;100773.84;5065737;28;20199;-75
2023/04/19 03:41:05;;;;;;;16.50;14.90;;;;;;;9.42;100.00;100760.94;5084059;28;20177;-74
2023/04/19 03:43:30;;;;;;;17.47;15.77;;;;;;;9.41;100.00;100763.47;5077089;28;20318;-75
2023/04/19 03:45:55;;;;;;;17.37;15.77;;;;;;;9.39;100.00;100760.91;5073308;28;20258;-75
2023/04/19 03:48:20;;;;;;;17.50;15.50;;;;;;;9.36;100.00;100760.03;5071795;28;20181;-75
2023/04/19 03:50:46;;;;;;;16.87;15.17;;;;;;;9.34;100.00;100754.84;5075021;28;20200;-76
2023/04/19 03:53:11;;;;;;;17.93;16.20;;;;;;;9.33;100.00;100755.69;5080834;28;20217;-74
2023/04/19 03:55:36;;;;;;;17.03;15.33;;;;;;;9.30;100.00;100755.72;5064695;28;20209;-75
2023/04/19 03:58:02;;;;;;;17.57;15.87;;;;;;;9.32;100.00;100747.97;5068126;28;20173;-74
2023/04/19 04:00:27;;;;;;;17.60;15.93;;;;;;;9.30;100.00;100753.13;5067369;28;20199;-78
2023/04/19 04:02:52;;;;;;;18.37;15.90;;;;;;;9.28;100.00;100747.09;5076191;28;20186;-73
2023/04/19 04:05:17;;;;;;;16.53;15.03;;;;;;;9.26;100.00;100744.50;5077440;28;20177;-74
2023/04/19 04:07:43;;;;;;;18.10;16.43;;;;;;;9.26;100.00;100753.97;5071514;28;20682;-76
2023/04/19 04:10:08;;;;;;;17.43;15.83;;;;;;;9.25;100.00;100745.34;5071516;28;20230;-74
2023/04/19 04:12:34;;;;;;;18.17;16.57;;;;;;;9.24;100.00;100746.19;5076310;28;20244;-74
2023/04/19 04:14:59;;;;;;;17.90;16.30;;;;;;;9.25;100.00;100747.06;5049485;28;20944;-76
2023/04/19 04:17:24;;;;;;;17.10;15.50;;;;;;;9.27;100.00;100750.53;5078876;28;20611;-74
2023/04/19 04:19:50;;;;;;;16.53;15.03;;;;;;;9.25;100.00;100750.50;5064993;28;20188;-76
2023/04/19 04:22:16;;;;;;;18.77;16.90;;;;;;;9.23;100.00;100749.63;5083707;28;20185;-77
2023/04/19 04:24:42;;;;;;;16.57;15.00;;;;;;;9.22;100.00;100747.06;5079188;28;20257;-75
2023/04/19 04:27:10;;;;;;;18.40;16.70;;;;;;;9.20;100.00;100747.06;5080274;28;20196;-75
2023/04/19 04:29:37;;;;;;;18.20;16.50;;;;;;;9.24;100.00;100746.19;5062764;28;20185;-75
2023/04/19 04:32:09;;;;;;;16.07;14.57;;;;;;;9.22;100.00;100750.53;5078089;28;20200;-75
2023/04/19 04:34:36;;;;;;;16.77;15.23;;;;;;;9.22;100.00;100750.53;5070446;28;20197;-75
2023/04/19 04:37:02;;;;;;;16.67;15.17;;;;;;;9.21;100.00;100751.38;5074394;28;20212;-75
2023/04/19 04:39:28;;;;;;;17.20;15.57;;;;;;;9.20;100.00;100759.09;5072319;28;20658;-76
2023/04/19 04:41:53;;;;;;;18.13;16.43;;;;;;;9.20;100.00;100744.47;5072379;28;20195;-75
2023/04/19 04:44:21;;;;;;;17.57;15.57;;;;;;;9.21;100.00;100747.91;5078170;28;20192;-75
2023/04/19 04:46:46;;;;;;;16.47;14.73;;;;;;;9.21;100.00;100748.78;5058119;28;20316;-74
2023/04/19 04:49:12;;;;;;;16.87;15.17;;;;;;;9.21;100.00;100753.97;5075578;28;20278;-75
2023/04/19 04:51:37;;;;;;;16.50;15.00;;;;;;;9.24;100.00;100753.94;5069994;28;20775;-75
2023/04/19 04:54:04;;;;;;;16.43;14.93;;;;;;;9.26;100.00;100753.97;5078034;28;20217;-75
2023/04/19 04:56:29;;;;;;;16.40;14.70;;;;;;;9.26;100.00;100752.25;5073520;28;20281;-75
2023/04/19 04:58:55;;;;;;;16.77;15.17;;;;;;;9.27;100.00;100764.28;5074677;28;20717;-75
2023/04/19 05:01:22;;;;;;;16.33;14.73;;;;;;;9.26;100.00;100754.81;5074049;28;20184;-75
2023/04/19 05:03:48;;;;;;;16.20;14.70;;;;;;;9.29;100.00;100760.00;5076877;28;20173;-75
2023/04/19 05:06:13;;;;;;;15.40;13.90;;;;;;;9.28;100.00;100757.44;5075869;28;20238;-74
2023/04/19 05:08:39;;;;;;;16.63;15.03;;;;;;;9.30;100.00;100758.31;5085174;28;20181;-75
2023/04/19 05:11:04;;;;;;;14.57;13.17;;;;;;;9.31;100.00;100757.41;5076944;28;20185;-74
2023/04/19 05:13:29;;;;;;;16.73;15.03;;;;;;;9.34;100.00;100754.84;5082776;28;20241;-75
2023/04/19 05:15:55;;;;;;;15.37;13.97;;;;;;;9.36;100.00;100755.72;5064899;28;20300;-76
2023/04/19 05:18:20;;;;;;;15.20;13.80;;;;;;;9.37;100.00;100754.03;5079894;28;20550;-75
2023/04/19 05:20:45;;;;;;;15.23;13.73;;;;;;;9.37;100.00;100761.75;5083141;28;20188;-75
2023/04/19 05:23:11;;;;;;;15.93;14.37;;;;;;;9.40;100.00;100764.34;5082038;28;20181;-75
2023/04/19 05:25:36;;;;;;;14.60;13.20;;;;;;;9.41;100.00;100760.91;5080598;28;20283;-73
2023/04/19 05:28:02;;;;;;;15.03;13.70;;;;;;;9.42;100.00;100763.50;5078150;28;20188;-75
2023/04/19 05:30:28;;;;;;;15.37;13.87;;;;;;;9.46;100.00;100766.97;5075809;28;20593;-75
2023/04/19 05:32:53;;;;;;;15.30;13.80;;;;;;;9.49;100.00;100761.81;5077440;28;20651;-75
2023/04/19 05:35:19;;;;;;;14.23;12.93;;;;;;;9.53;100.00;100770.41;5072116;28;20209;-74
2023/04/19 05:37:44;;;;;;;15.50;14.07;;;;;;;9.56;100.00;100767.84;5073665;28;20754;-75
2023/04/19 05:40:10;;;;;;;14.73;13.30;;;;;;;9.59;100.00;100775.63;5078265;28;20175;-75
2023/04/19 05:42:37;;;;;;;15.03;13.53;;;;;;;9.64;100.00;100773.88;5081515;28;20238;-74
2023/04/19 05:45:03;;;;;;;15.00;13.37;;;;;;;9.70;100.00;100775.63;5074221;28;20181;-75
2023/04/19 05:47:28;;;;;;;14.87;13.13;;;;;;;9.72;100.00;100767.03;5079715;28;20654;-75
2023/04/19 05:49:53;;;;;;;15.00;13.50;;;;;;;9.76;100.00;100766.16;5070952;28;20190;-76
2023/04/19 05:52:19;;;;;;;14.20;12.77;;;;;;;9.77;100.00;100773.06;5077404;28;20182;-76
2023/04/19 05:54:44;;;;;;;16.40;13.03;;;;;;;9.98;100.00;100762.78;5080610;28;20544;-76
2023/04/19 05:57:09;;;;;;;13.83;12.57;;;;;;;10.15;100.00;100767.94;5083403;28;20201;-75
2023/04/19 05:59:35;;;;;;;14.00;12.77;;;;;;;10.33;100.00;100774.84;5085697;28;20189;-76
2023/04/19 06:02:00;;;;;;;15.03;13.63;;;;;;;10.46;100.00;100767.97;5086890;28;20199;-76
2023/04/19 06:04:26;;;;;;;13.93;12.63;;;;;;;10.50;100.00;100775.72;5079926;28;20645;-74
2023/04/19 06:06:51;;;;;;;14.27;12.87;;;;;;;10.59;100.00;100774.88;5076543;28;20708;-75
2023/04/19 06:09:17;;;;;;;13.53;12.33;;;;;;;10.64;100.00;100767.97;5083487;28;20196;-75
2023/04/19 06:11:43;;;;;;;13.17;11.87;;;;;;;10.72;100.00;100767.06;5081921;28;20634;-76
2023/04/19 06:14:09;;;;;;;13.87;12.47;;;;;;;10.89;99.24;100769.66;5079960;28;20603;-75
2023/04/19 06:16:35;;;;;;;13.13;11.93;;;;;;;11.11;98.32;100767.84;5084438;28;20688;-75
2023/04/19 06:19:00;;;;;;;12.43;11.33;;;;;;;11.22;96.95;100773.84;5059398;28;20178;-75
2023/04/19 06:21:25;;;;;;;14.50;13.10;;;;;;;11.14;96.75;100770.41;5083797;28;20787;-75
2023/04/19 06:23:51;;;;;;;12.70;11.50;;;;;;;11.26;96.78;100779.88;5081358;28;20689;-75
2023/04/19 06:26:16;;;;;;;13.00;11.83;;;;;;;11.30;96.77;100779.00;5083693;28;20209;-75
2023/04/19 06:28:41;;;;;;;12.63;11.43;;;;;;;11.19;96.97;100771.25;5086215;28;20178;-75
2023/04/19 06:31:07;;;;;;;13.50;12.30;;;;;;;11.12;97.15;100778.19;5064682;28;22108;-75
2023/04/19 06:33:32;;;;;;;13.60;12.30;;;;;;;11.16;97.29;100780.78;5068108;28;20671;-76
2023/04/19 06:35:57;;;;;;;13.13;11.93;;;;;;;11.38;95.95;100774.63;5077149;28;20201;-75
2023/04/19 06:38:23;;;;;;;13.63;12.43;;;;;;;11.88;94.85;100775.22;5074935;28;20204;-75
2023/04/19 06:40:48;;;;;;;13.40;12.20;;;;;;;12.20;92.05;100776.75;5071854;28;20190;-76
2023/04/19 06:43:13;;;;;;;13.37;12.17;;;;;;;12.51;90.62;100775.66;5077807;28;20548;-76
2023/04/19 06:45:39;;;;;;;13.33;12.13;;;;;;;12.45;90.26;100773.09;5075994;28;21042;-77
2023/04/19 06:48:04;;;;;;;13.03;11.93;;;;;;;12.54;90.35;100777.34;5076432;28;20720;-76
2023/04/19 06:50:29;;;;;;;12.57;11.37;;;;;;;12.14;91.66;100779.41;5076505;28;20574;-75
2023/04/19 06:52:55;;;;;;;12.63;11.53;;;;;;;12.25;91.38;100776.72;5083080;28;20212;-76
2023/04/19 06:55:20;;;;;;;13.10;11.90;;;;;;;12.40;91.50;100772.28;5078318;28;20218;-75
2023/04/19 06:57:46;;;;;;;11.50;10.50;;;;;;;12.74;90.24;100769.34;5079945;28;20268;-76
2023/04/19 07:00:12;;;;;;;12.77;11.63;;;;;;;12.89;90.30;100773.53;5070008;28;20641;-76
2023/04/19 07:02:38;;;;;;;12.10;11.00;;;;;;;13.15;88.93;100765.47;5078820;28;20203;-76
2023/04/19 07:05:04;;;;;;;13.47;12.30;;;;;;;13.11;86.60;100763.78;5061716;28;20583;-75
2023/04/19 07:07:29;;;;;;;12.57;11.47;;;;;;;12.76;87.94;100759.81;5077971;28;20203;-76
2023/04/19 07:09:54;;;;;;;12.73;11.63;;;;;;;12.55;87.94;100773.88;5073963;28;20270;-75
2023/04/19 07:12:20;;;;;;;12.70;11.60;;;;;;;12.56;89.03;100767.81;5053760;28;20953;-76
2023/04/19 07:14:45;;;;;;;12.03;10.93;;;;;;;12.46;89.51;100769.63;5070293;28;20197;-76
2023/04/19 07:17:12;;;;;;;13.03;11.83;;;;;;;12.42;89.18;100771.41;5071003;28;20211;-76
2023/04/19 07:19:38;;;;;;;11.83;10.63;;;;;;;12.41;89.69;100767.09;5055250;28;20186;-75
2023/04/19 07:22:05;;;;;;;11.73;10.67;;;;;;;12.65;89.63;100766.00;5071943;28;20180;-76
2023/04/19 07:24:30;;;;;;;12.77;11.57;;;;;;;13.00;88.84;100769.09;5072111;28;20189;-75
2023/04/19 07:26:56;;;;;;;11.60;10.60;;;;;;;13.42;87.26;100760.81;5072506;28;20208;-75
2023/04/19 07:29:22;;;;;;;11.80;10.70;;;;;;;13.64;85.09;100761.38;5077195;28;20599;-75
2023/04/19 07:31:47;;;;;;;11.73;10.63;;;;;;;13.46;85.80;100759.88;5074535;28;20195;-75
2023/04/19 07:34:12;;;;;;;13.43;12.10;;;;;;;13.24;85.76;100757.53;5078881;28;20216;-75
2023/04/19 07:36:38;;;;;;;12.13;11.03;;;;;;;13.05;86.98;100764.72;5076924;28;20216;-75
2023/04/19 07:39:03;;;;;;;12.27;11.07;;;;;;;12.67;88.32;100763.38;5081582;28;20677;-76
2023/04/19 07:41:30;;;;;;;12.10;11.00;;;;;;;12.64;89.50;100764.28;5055804;28;20736;-75
2023/04/19 07:43:55;;;;;;;12.47;11.37;;;;;;;12.64;89.34;100756.47;5075488;28;20550;-75
2023/04/19 07:46:21;;;;;;;10.73;9.83;;;;;;;12.61;89.22;100759.09;5072532;28;20210;-77
2023/04/19 07:48:46;;;;;;;12.20;10.97;;;;;;;12.71;89.14;100767.66;5059141;28;20320;-75
2023/04/19 07:51:18;;;;;;;11.97;10.50;;;;;;;12.68;88.48;100759.91;5079175;28;20280;-75
2023/04/19 07:53:46;;;;;;;11.53;10.43;;;;;;;12.72;87.88;100750.31;5073945;28;20208;-75
2023/04/19 07:56:11;;;;;;;11.83;10.60;;;;;;;12.88;88.05;100745.84;5074708;28;20825;-75
2023/04/19 07:58:38;;;;;;;11.33;10.23;;;;;;;13.03;87.63;100747.41;5060053;28;20226;-75
2023/04/19 08:01:04;;;;;;;11.70;10.63;;;;;;;12.91;87.04;100745.81;5071889;28;20870;-76
2023/04/19 08:03:30;;;;;;;11.60;10.60;;;;;;;13.04;87.22;100744.78;5072086;28;20183;-75
2023/04/19 08:05:56;;;;;;;10.63;9.70;;;;;;;13.29;87.64;100746.25;5072449;28;20564;-75
2023/04/19 08:08:22;;;;;;;11.57;10.57;;;;;;;13.36;85.21;100740.06;5069849;28;20187;-75
2023/04/19 08:10:47;;;;;;;10.23;9.33;;;;;;;13.58;84.94;100740.66;5073168;28;20583;-75
2023/04/19 08:13:13;;;;;;;10.50;9.63;;;;;;;13.74;83.42;100740.44;5072607;28;20258;-76
2023/04/19 08:15:38;;;;;;;11.97;10.77;;;;;;;13.55;82.99;100741.56;5072920;28;20206;-75
2023/04/19 08:18:04;;;;;;;10.77;9.77;;;;;;;13.53;83.33;100758.94;5074215;28;20189;-76
2023/04/19 08:20:31;;;;;;;11.57;10.37;;;;;;;13.47;83.37;100738.19;5045792;28;20181;-76
2023/04/19 08:22:56;;;;;;;10.77;9.77;;;;;;;13.32;83.85;100740.97;5072342;28;20181;-74
2023/04/19 08:25:25;;;;;;;9.80;8.97;;;;;;;13.48;83.42;100734.72;5074795;28;20210;-76
2023/04/19 08:27:51;;;;;;;10.73;9.63;;;;;;;13.58;82.90;100745.84;5069979;28;20183;-76
2023/04/19 08:30:16;;;;;;;10.80;9.87;;;;;;;13.53;83.26;100738.13;5072942;28;20219;-76
2023/04/19 08:32:41;;;;;;;10.63;9.67;;;;;;;13.48;82.98;100736.47;5079770;28;20242;-74
2023/04/19 08:35:07;;;;;;;8.90;8.10;;;;;;;13.43;83.18;100735.66;5080056;28;20182;-75
2023/04/19 08:37:33;;;;;;;9.90;9.10;;;;;;;13.61;82.54;100750.19;5069360;28;20198;-76
2023/04/19 08:39:58;;;;;;;9.77;8.87;;;;;;;13.83;82.03;100743.75;5079445;28;20179;-76
2023/04/19 08:42:23;;;;;;;8.60;7.80;;;;;;;14.29;81.54;100729.13;5073529;28;20288;-76
2023/04/19 08:44:49;;;;;;;10.03;9.03;;;;;;;14.36;81.75;100729.91;5083939;28;20190;-76
2023/04/19 08:47:15;;;;;;;8.73;8.03;;;;;;;14.39;81.10;100726.38;5073941;28;20620;-75
2023/04/19 08:49:42;;;;;;;9.67;8.67;;;;;;;14.37;80.09;100721.19;5063498;28;20268;-75
2023/04/19 08:52:09;;;;;;;8.80;8.00;;;;;;;14.50;80.58;100728.81;5084276;28;20185;-75
2023/04/19 08:54:35;;;;;;;8.27;7.47;;;;;;;14.84;80.88;100718.63;5076505;28;20213;-76
2023/04/19 08:57:02;;;;;;;9.47;8.57;;;;;;;15.00;77.58;100710.50;5053150;28;20281;-76
2023/04/19 08:59:30;;;;;;;8.70;7.53;;;;;;;15.34;76.55;100710.63;5080694;28;20185;-75
2023/04/19 09:01:59;;;;;;;8.60;7.87;;;;;;;15.39;75.42;100719.22;5086827;28;20204;-75
2023/04/19 09:04:24;;;;;;;8.23;7.53;;;;;;;15.57;75.64;100716.22;5075790;28;21018;-76
2023/04/19 09:06:50;;;;;;;8.23;7.43;;;;;;;15.51;75.14;100704.19;5070491;28;20202;-76
2023/04/19 09:09:17;;;;;;;8.23;7.43;;;;;;;15.82;74.10;100699.09;5075330;28;20300;-75
2023/04/19 09:11:42;;;;;;;8.03;7.33;;;;;;;15.99;73.59;100703.94;5084684;28;20219;-75
2023/04/19 09:14:09;;;;;;;8.60;7.90;;;;;;;15.94;74.72;100697.97;5067082;28;20436;-75
2023/04/19 09:16:36;;;;;;;7.50;6.90;;;;;;;15.98;74.62;100697.00;5067932;28;20201;-74
2023/04/19 09:19:02;;;;;;;8.43;7.63;;;;;;;15.68;74.05;100706.38;5084216;28;20301;-76
2023/04/19 09:21:29;;;;;;;7.60;7.00;;;;;;;15.41;74.94;100706.13;5060837;28;20645;-76
2023/04/19 09:23:55;;;;;;;7.87;7.17;;;;;;;15.43;76.02;100701.75;5085166;28;20749;-78
2023/04/19 09:26:20;;;;;;;7.77;7.07;;;;;;;15.08;76.30;100692.94;5086759;28;20321;-76
2023/04/19 09:29:00;;;;;;;9.07;8.30;;;;;;;15.05;77.58;100693.03;5087155;28;20593;-76
2023/04/19 09:31:27;;;;;;;9.57;8.67;;;;;;;15.19;77.49;100685.78;5086424;28;20188;-76
2023/04/19 09:33:53;;;;;;;9.27;8.37;;;;;;;15.45;77.51;100688.66;5060035;28;20208;-75
2023/04/19 09:36:45;;;;;;;8.27;7.57;;;;;;;15.63;76.81;100709.13;5070929;28;20906;-75
2023/04/19 09:39:11;;;;;;;9.10;8.30;;;;;;;15.38;76.18;100687.94;5083715;28;20237;-76
2023/04/19 09:41:55;;;;;;;8.60;7.47;;;;;;;15.31;77.63;100683.78;5075587;28;20250;-76
2023/04/19 09:44:20;;;;;;;9.47;8.67;;;;;;;15.25;76.44;100687.38;5082010;28;20177;-76
2023/04/19 09:46:48;;;;;;;8.90;8.00;;;;;;;15.23;75.58;100686.56;5072923;28;20189;-76
2023/04/19 09:49:14;;;;;;;8.40;7.53;;;;;;;15.26;75.49;100680.41;5082906;28;20177;-76
2023/04/19 09:51:40;;;;;;;8.03;7.33;;;;;;;15.24;75.27;100683.06;5063957;28;20368;-76
2023/04/19 09:54:10;;;;;;;7.40;6.70;;;;;;;15.32;75.48;100672.47;5055643;28;20698;-76
2023/04/19 09:56:37;;;;;;;9.23;8.43;;;;;;;15.39;75.49;100672.28;5074476;28;20346;-75
2023/04/19 09:59:03;;;;;;;9.87;8.00;;;;;;;15.35;75.79;100672.41;5094661;28;20579;-77
2023/04/19 10:01:33;;;;;;;7.80;7.10;;;;;;;15.23;75.97;100676.13;5086525;28;20190;-74
2023/04/19 10:04:00;;;;;;;8.10;7.23;;;;;;;15.06;75.94;100669.53;5083988;28;20185;-77
2023/04/19 10:06:26;;;;;;;8.70;7.90;;;;;;;14.93;76.28;100665.47;5075588;28;20211;-74
2023/04/19 10:08:54;;;;;;;7.73;7.03;;;;;;;15.05;76.31;100675.63;5083302;28;20182;-74
2023/04/19 10:11:25;;;;;;;8.23;7.33;;;;;;;15.10;76.51;100678.13;5073127;28;20209;-76
2023/04/19 10:13:55;;;;;;;9.00;8.13;;;;;;;15.06;77.19;100669.53;5084483;28;20200;-75
2023/04/19 10:16:20;;;;;;;8.57;7.73;;;;;;;15.30;77.95;100671.63;5077639;28;20256;-74
2023/04/19 10:18:51;;;;;;;8.87;8.07;;;;;;;15.21;77.88;100670.09;5080934;28;20273;-75
2023/04/19 10:21:18;;;;;;;8.67;7.87;;;;;;;15.18;76.83;100671.00;5074107;28;21154;-74
2023/04/19 10:23:44;;;;;;;9.03;8.13;;;;;;;15.05;76.45;100664.34;5079450;28;20634;-75
2023/04/19 10:26:10;;;;;;;8.90;8.03;;;;;;;15.30;76.47;100663.81;5079049;28;20213;-74
2023/04/19 10:28:36;;;;;;;9.13;8.33;;;;;;;15.36;75.33;100667.13;5084348;28;20192;-75
2023/04/19 10:31:04;;;;;;;8.63;7.73;;;;;;;15.54;74.59;100665.00;5075478;28;20612;-75
2023/04/19 10:33:39;;;;;;;8.20;7.23;;;;;;;15.71;74.62;100651.53;5074613;28;20262;-75
2023/04/19 10:36:08;;;;;;;8.10;7.40;;;;;;;16.07;74.15;100640.22;5074172;28;20200;-76
2023/04/19 10:39:02;;;;;;;7.53;6.90;;;;;;;16.14;73.09;100660.06;5061126;28;20279;-76
2023/04/19 10:41:56;;;;;;;7.70;6.97;;;;;;;16.30;71.20;100644.84;5076167;28;20196;-75
2023/04/19 10:44:21;;;;;;;8.17;7.47;;;;;;;16.56;70.95;100631.06;5053532;28;20174;-73
2023/04/19 10:46:46;;;;;;;7.77;7.17;;;;;;;16.70;70.39;100635.91;5079531;28;20243;-74
2023/04/19 10:49:12;;;;;;;8.53;6.80;;;;;;;16.22;71.52;100632.00;5081563;28;20183;-74
2023/04/19 10:51:41;;;;;;;7.87;7.07;;;;;;;15.88;71.59;100624.19;5081670;28;20760;-74
2023/04/19 10:54:07;;;;;;;7.47;6.80;;;;;;;15.78;72.47;100629.63;5077647;28;20195;-74
2023/04/19 10:56:33;;;;;;;7.50;6.90;;;;;;;15.62;73.71;100628.28;5086149;28;20293;-75
2023/04/19 10:59:01;;;;;;;6.70;6.10;;;;;;;15.57;73.88;100617.97;5072165;28;20833;-73
2023/04/19 11:01:54;;;;;;;7.50;6.53;;;;;;;15.24;75.68;100617.88;5081166;28;20185;-75
2023/04/19 11:04:49;;;;;;;7.77;7.00;;;;;;;15.03;75.90;100619.22;5058919;28;20198;-75
2023/04/19 11:07:17;;;;;;;7.47;6.33;;;;;;;14.94;76.01;100610.69;5062614;28;20209;-76
2023/04/19 11:09:47;;;;;;;8.00;7.30;;;;;;;14.92;76.47;100607.25;5054601;28;20640;-73